createdAt,value
2023-03-29T00:00:33.419Z,8.96
2023-03-29T00:03:02.837Z,9.25
2023-03-29T00:05:34.030Z,9.24
2023-03-29T00:08:04.571Z,9.25
2023-03-29T00:10:33.792Z,9.19
2023-03-29T00:13:02.548Z,9.09
2023-03-29T00:15:30.167Z,9.12
2023-03-29T00:17:58.218Z,9.03
2023-03-29T00:20:25.822Z,9.27
2023-03-29T00:22:53.369Z,9.31
2023-03-29T00:25:21.014Z,9.30
2023-03-29T00:27:48.644Z,9.43
2023-03-29T00:30:18.497Z,9.55
2023-03-29T00:32:46.254Z,9.78
2023-03-29T00:35:14.141Z,9.75
2023-03-29T00:37:41.976Z,9.82
2023-03-29T00:40:15.549Z,9.92
2023-03-29T00:42:49.068Z,9.88
2023-03-29T00:45:21.857Z,9.81
2023-03-29T00:47:57.257Z,9.61
2023-03-29T00:50:41.512Z,9.34
2023-03-29T00:53:15.202Z,9.32
2023-03-29T00:55:55.279Z,9.01
2023-03-29T00:58:53.112Z,8.84
2023-03-29T01:01:34.238Z,8.95
2023-03-29T01:04:08.916Z,9.11
2023-03-29T01:06:39.563Z,9.17
2023-03-29T01:09:12.766Z,9.48
2023-03-29T01:11:46.182Z,9.07
2023-03-29T01:14:26.949Z,9.32
2023-03-29T01:16:56.710Z,9.35
2023-03-29T01:19:30.489Z,9.59
2023-03-29T01:22:38.709Z,9.53
2023-03-29T01:25:50.995Z,9.17
2023-03-29T01:28:23.370Z,9.02
2023-03-29T01:31:09.365Z,8.89
2023-03-29T01:33:46.379Z,8.88
2023-03-29T01:36:35.070Z,9.05
2023-03-29T01:39:08.411Z,9.09
2023-03-29T01:41:52.581Z,9.29
2023-03-29T01:44:30.806Z,8.99
2023-03-29T01:47:23.189Z,9.04
2023-03-29T01:50:15.696Z,9.02
2023-03-29T01:52:57.830Z,8.68
2023-03-29T01:55:31.855Z,8.68
2023-03-29T01:58:03.482Z,8.66
2023-03-29T02:00:34.413Z,8.43
2023-03-29T02:03:08.449Z,8.35
2023-03-29T02:05:39.363Z,7.71
2023-03-29T02:08:11.037Z,7.54
2023-03-29T02:10:38.606Z,7.39
2023-03-29T02:13:06.327Z,7.23
2023-03-29T02:15:34.244Z,7.29
2023-03-29T02:18:04.238Z,7.35
2023-03-29T02:20:40.646Z,7.68
2023-03-29T02:23:14.591Z,7.96
2023-03-29T02:25:45.846Z,8.07
2023-03-29T02:28:14.686Z,8.34
2023-03-29T02:31:05.526Z,8.06
2023-03-29T02:33:57.249Z,7.85
2023-03-29T02:36:44.164Z,7.80
2023-03-29T02:39:15.859Z,7.77
2023-03-29T02:41:47.594Z,7.65
2023-03-29T02:44:28.261Z,7.70
2023-03-29T02:47:03.197Z,7.84
2023-03-29T02:49:59.100Z,7.90
2023-03-29T02:52:34.317Z,8.04
2023-03-29T02:55:06.811Z,8.31
2023-03-29T02:57:37.239Z,8.44
2023-03-29T03:00:10.386Z,8.35
2023-03-29T03:02:38.414Z,8.23
2023-03-29T03:05:09.274Z,8.36
2023-03-29T03:07:37.496Z,8.36
2023-03-29T03:10:05.568Z,8.43
2023-03-29T03:12:37.994Z,8.38
2023-03-29T03:15:06.736Z,8.23
2023-03-29T03:17:40.046Z,8.12
2023-03-29T03:20:13.038Z,7.96
2023-03-29T03:22:49.113Z,7.94
2023-03-29T03:25:19.557Z,8.05
2023-03-29T03:27:50.441Z,7.93
2023-03-29T03:30:21.636Z,7.86
2023-03-29T03:33:12.328Z,7.81
2023-03-29T03:36:02.981Z,7.86
2023-03-29T03:38:33.000Z,7.96
2023-03-29T03:41:02.479Z,8.10
2023-03-29T03:43:34.233Z,8.19
2023-03-29T03:46:02.339Z,8.19
2023-03-29T03:48:31.689Z,8.17
2023-03-29T03:51:09.674Z,8.00
2023-03-29T03:53:37.237Z,7.99
2023-03-29T03:56:14.140Z,8.09
2023-03-29T03:59:01.197Z,8.11
2023-03-29T04:01:31.965Z,8.26
2023-03-29T04:04:07.000Z,8.12
2023-03-29T04:06:34.779Z,8.06
2023-03-29T04:09:31.362Z,8.07
2023-03-29T04:12:13.763Z,8.13
2023-03-29T04:14:48.828Z,8.12
2023-03-29T04:17:23.268Z,8.23
2023-03-29T04:20:15.124Z,8.24
2023-03-29T04:22:42.847Z,8.46
2023-03-29T04:25:11.830Z,8.61
2023-03-29T04:27:50.619Z,8.73
2023-03-29T04:30:36.057Z,8.87
2023-03-29T04:33:06.394Z,8.81
2023-03-29T04:35:35.198Z,8.70
2023-03-29T04:38:10.260Z,8.79
2023-03-29T04:40:38.901Z,8.75
2023-03-29T04:43:14.647Z,8.58
2023-03-29T04:45:54.292Z,8.68
2023-03-29T04:48:42.106Z,8.60
2023-03-29T04:51:09.949Z,8.56
2023-03-29T04:53:37.786Z,8.81
2023-03-29T04:56:08.188Z,8.88
2023-03-29T04:58:54.928Z,8.94
2023-03-29T05:01:48.807Z,8.97
2023-03-29T05:04:18.570Z,8.42
2023-03-29T05:07:02.271Z,8.79
2023-03-29T05:09:32.469Z,8.87
2023-03-29T05:12:02.351Z,8.91
2023-03-29T05:14:37.804Z,8.99
2023-03-29T05:17:06.643Z,9.13
2023-03-29T05:19:38.661Z,9.11
2023-03-29T05:22:09.409Z,9.06
2023-03-29T05:24:38.148Z,8.98
2023-03-29T05:27:17.289Z,9.20
2023-03-29T05:29:54.492Z,9.10
2023-03-29T05:32:27.705Z,9.17
2023-03-29T05:34:58.863Z,8.99
2023-03-29T05:37:27.523Z,8.27
2023-03-29T05:40:05.921Z,8.16
2023-03-29T05:42:39.779Z,8.28
2023-03-29T05:45:11.701Z,8.72
2023-03-29T05:47:41.871Z,8.83
2023-03-29T05:50:10.474Z,9.07
2023-03-29T05:52:38.907Z,9.03
2023-03-29T05:55:07.553Z,9.12
2023-03-29T05:57:38.854Z,9.20
2023-03-29T06:00:20.358Z,8.77
2023-03-29T06:02:48.189Z,8.62
2023-03-29T06:05:20.202Z,9.02
2023-03-29T06:08:01.881Z,8.92
2023-03-29T06:11:05.186Z,8.83
2023-03-29T06:14:08.328Z,8.98
2023-03-29T06:16:42.821Z,9.25
2023-03-29T06:19:11.593Z,9.14
2023-03-29T06:21:41.399Z,9.17
2023-03-29T06:24:11.168Z,9.35
2023-03-29T06:26:45.225Z,9.31
2023-03-29T06:29:13.350Z,9.44
2023-03-29T06:31:54.608Z,9.52
2023-03-29T06:34:45.289Z,9.78
2023-03-29T06:37:32.898Z,9.84
2023-03-29T06:40:24.815Z,9.97
2023-03-29T06:42:58.060Z,10.10
2023-03-29T06:45:44.918Z,9.89
2023-03-29T06:51:07.778Z,10.35
2023-03-29T06:53:36.803Z,10.10
2023-03-29T06:56:09.465Z,9.99
2023-03-29T06:58:45.037Z,10.45
2023-03-29T07:01:28.845Z,10.91
2023-03-29T07:04:04.952Z,11.14
2023-03-29T07:06:39.421Z,11.10
2023-03-29T07:09:13.088Z,11.70
2023-03-29T07:12:01.757Z,12.42
2023-03-29T07:14:30.999Z,13.01
2023-03-29T07:17:02.688Z,13.19
2023-03-29T07:19:35.232Z,15.95
2023-03-29T07:22:10.029Z,16.48
2023-03-29T07:24:51.533Z,17.22
2023-03-29T07:27:19.769Z,18.52
2023-03-29T07:29:51.702Z,18.61
2023-03-29T07:32:20.098Z,19.53
2023-03-29T07:35:09.048Z,18.09
2023-03-29T07:37:37.586Z,19.35
2023-03-29T07:40:18.402Z,17.72
2023-03-29T07:42:59.061Z,19.85
2023-03-29T07:45:31.123Z,20.72
2023-03-29T07:48:06.522Z,20.32
2023-03-29T07:50:49.037Z,17.45
2023-03-29T07:53:19.594Z,20.23
2023-03-29T07:55:49.250Z,22.16
2023-03-29T07:58:49.268Z,24.44
2023-03-29T08:01:20.034Z,23.10
2023-03-29T08:04:18.131Z,24.44
2023-03-29T08:07:04.113Z,24.61
2023-03-29T08:09:50.952Z,19.40
2023-03-29T08:12:20.146Z,22.56
2023-03-29T08:14:48.048Z,25.59
2023-03-29T08:17:26.991Z,25.86
2023-03-29T08:19:54.721Z,25.93
2023-03-29T08:22:24.898Z,24.01
2023-03-29T08:25:18.914Z,25.00
2023-03-29T08:27:50.394Z,22.71
2023-03-29T08:30:29.169Z,23.60
2023-03-29T08:32:58.241Z,21.25
2023-03-29T08:35:25.989Z,23.65
2023-03-29T08:38:08.445Z,24.96
2023-03-29T08:40:37.462Z,25.51
2023-03-29T08:44:04.602Z,25.77
2023-03-29T08:46:44.672Z,23.16
2023-03-29T08:49:27.666Z,22.87
2023-03-29T08:52:02.333Z,20.01
2023-03-29T08:54:44.457Z,20.68
2023-03-29T08:57:36.136Z,24.47
2023-03-29T09:00:29.421Z,24.80
2023-03-29T09:02:59.156Z,24.05
2023-03-29T09:05:28.915Z,25.54
2023-03-29T09:08:20.685Z,25.46
2023-03-29T09:11:17.524Z,25.07
2023-03-29T09:14:01.466Z,23.10
2023-03-29T09:16:33.617Z,25.96
2023-03-29T09:19:25.724Z,24.31
2023-03-29T09:22:03.205Z,26.08
2023-03-29T09:24:46.751Z,23.10
2023-03-29T09:27:54.414Z,25.60
2023-03-29T09:30:43.356Z,26.48
2023-03-29T09:33:37.462Z,27.25
2023-03-29T09:36:37.184Z,26.84
2023-03-29T09:39:05.802Z,25.59
2023-03-29T09:41:46.846Z,26.74
2023-03-29T09:44:30.253Z,27.48
2023-03-29T09:47:31.641Z,25.00
2023-03-29T09:50:23.156Z,22.84
2023-03-29T09:52:57.619Z,21.02
2023-03-29T09:55:29.528Z,24.49
2023-03-29T09:58:15.298Z,25.19
2023-03-29T10:00:50.750Z,23.84
2023-03-29T10:03:23.200Z,24.68
2023-03-29T10:06:16.116Z,23.22
2023-03-29T10:08:59.100Z,22.52
2023-03-29T10:11:39.959Z,21.98
2023-03-29T10:14:14.274Z,22.58
2023-03-29T10:16:52.743Z,23.24
2023-03-29T10:19:22.840Z,21.49
2023-03-29T10:21:53.056Z,21.36
2023-03-29T10:24:22.784Z,21.38
2023-03-29T10:27:02.757Z,21.31
2023-03-29T10:29:42.425Z,20.87
2023-03-29T10:32:23.380Z,21.38
2023-03-29T10:34:52.176Z,21.86
2023-03-29T10:37:21.285Z,21.66
2023-03-29T10:39:54.486Z,21.20
2023-03-29T10:42:24.801Z,21.70
2023-03-29T10:44:56.686Z,22.09
2023-03-29T10:47:24.996Z,22.21
2023-03-29T10:49:58.971Z,21.48
2023-03-29T10:52:26.713Z,21.17
2023-03-29T10:54:56.472Z,19.37
2023-03-29T10:57:57.757Z,20.85
2023-03-29T11:00:34.172Z,20.72
2023-03-29T11:03:26.253Z,20.75
2023-03-29T11:06:03.160Z,20.73
2023-03-29T11:08:54.416Z,20.55
2023-03-29T11:11:41.289Z,20.46
2023-03-29T11:14:32.899Z,20.78
2023-03-29T11:17:34.959Z,20.30
2023-03-29T11:20:29.654Z,20.59
2023-03-29T11:23:05.993Z,20.45
2023-03-29T11:25:45.979Z,20.38
2023-03-29T11:28:28.981Z,20.29
2023-03-29T11:31:13.446Z,20.68
2023-03-29T11:33:58.866Z,19.38
2023-03-29T11:36:38.071Z,19.29
2023-03-29T11:39:21.023Z,19.76
2023-03-29T11:41:53.122Z,19.85
2023-03-29T11:44:27.132Z,19.61
2023-03-29T11:47:07.317Z,19.81
2023-03-29T11:49:43.155Z,19.72
2023-03-29T11:52:19.715Z,19.79
2023-03-29T11:55:03.534Z,19.75
2023-03-29T11:57:36.817Z,20.04
2023-03-29T12:00:14.873Z,19.94
2023-03-29T12:02:48.616Z,20.08
2023-03-29T12:05:24.691Z,20.40
2023-03-29T12:07:58.186Z,20.23
2023-03-29T12:10:36.229Z,19.86
2023-03-29T12:13:15.335Z,19.89
2023-03-29T12:15:54.018Z,19.95
2023-03-29T12:18:27.450Z,19.72
2023-03-29T12:21:01.547Z,19.66
2023-03-29T12:23:32.711Z,19.98
2023-03-29T12:26:25.593Z,20.17
2023-03-29T12:29:12.258Z,20.29
2023-03-29T12:31:47.034Z,19.64
2023-03-29T12:34:35.116Z,20.13
2023-03-29T12:37:39.360Z,20.21
2023-03-29T12:40:28.940Z,19.95
2023-03-29T12:43:39.688Z,19.93
2023-03-29T12:46:35.516Z,20.23
2023-03-29T12:49:26.961Z,19.64
2023-03-29T12:51:57.282Z,19.53
2023-03-29T12:54:28.743Z,19.83
2023-03-29T12:57:01.225Z,19.79
2023-03-29T12:59:46.999Z,19.73
2023-03-29T13:02:16.985Z,19.46
2023-03-29T13:04:55.325Z,19.52
2023-03-29T13:07:22.905Z,19.73
2023-03-29T13:09:56.542Z,19.42
2023-03-29T13:12:33.635Z,19.64
2023-03-29T13:15:06.103Z,19.76
2023-03-29T13:17:33.665Z,19.86
2023-03-29T13:20:01.884Z,19.70
2023-03-29T13:23:10.669Z,19.42
2023-03-29T13:25:40.298Z,19.34
2023-03-29T13:28:32.828Z,19.73
2023-03-29T13:31:06.480Z,19.71
2023-03-29T13:33:38.272Z,19.62
2023-03-29T13:36:38.475Z,19.70
2023-03-29T13:39:09.959Z,19.82
2023-03-29T13:41:40.437Z,19.83
2023-03-29T13:44:26.517Z,19.89
2023-03-29T13:47:29.460Z,19.54
2023-03-29T13:50:01.213Z,19.83
2023-03-29T13:52:36.531Z,20.22
2023-03-29T13:55:23.601Z,19.85
2023-03-29T13:58:24.763Z,19.38
2023-03-29T14:01:07.621Z,19.52
2023-03-29T14:03:51.732Z,19.64
2023-03-29T14:06:33.389Z,19.71
2023-03-29T14:09:07.333Z,19.81
2023-03-29T14:11:35.321Z,19.77
2023-03-29T14:14:08.616Z,19.55
2023-03-29T14:16:42.093Z,19.98
2023-03-29T14:19:20.577Z,20.03
2023-03-29T14:21:52.689Z,19.90
2023-03-29T14:24:31.709Z,19.79
2023-03-29T14:27:06.410Z,19.59
2023-03-29T14:29:45.180Z,19.54
2023-03-29T14:32:16.767Z,20.07
2023-03-29T14:34:50.021Z,19.90
2023-03-29T14:37:25.438Z,19.73
2023-03-29T14:39:54.664Z,19.70
2023-03-29T14:42:32.511Z,19.82
2023-03-29T14:45:14.253Z,20.05
2023-03-29T14:47:51.645Z,19.86
2023-03-29T14:50:29.152Z,19.90
2023-03-29T14:53:01.836Z,19.82
2023-03-29T14:55:32.530Z,20.08
2023-03-29T14:58:00.873Z,19.96
2023-03-29T15:00:38.725Z,19.85
2023-03-29T15:03:13.954Z,19.73
2023-03-29T15:05:46.917Z,20.01
2023-03-29T15:09:06.835Z,20.17
2023-03-29T15:18:49.532Z,19.83
2023-03-29T15:25:54.579Z,19.98
2023-03-29T15:28:37.343Z,19.89
2023-03-29T15:31:15.298Z,19.80
2023-03-29T15:33:50.150Z,19.92
2023-03-29T15:36:40.681Z,19.51
2023-03-29T15:43:36.200Z,19.54
2023-03-29T15:52:18.951Z,19.56
2023-03-29T15:56:01.018Z,19.37
2023-03-29T15:59:15.356Z,19.31
2023-03-29T16:05:20.397Z,19.34
2023-03-29T16:08:46.367Z,19.12
2023-03-29T16:17:42.586Z,19.12
2023-03-29T16:20:22.133Z,19.11
2023-03-29T16:22:54.311Z,19.28
2023-03-29T16:25:24.968Z,19.05
2023-03-29T16:27:57.523Z,19.05
2023-03-29T16:30:40.858Z,19.02
2023-03-29T16:33:14.618Z,18.91
2023-03-29T16:35:56.009Z,18.95
2023-03-29T16:38:45.079Z,18.89
2023-03-29T16:41:17.450Z,18.79
2023-03-29T16:43:51.858Z,18.74
2023-03-29T16:46:21.219Z,18.71
2023-03-29T16:48:54.507Z,18.72
2023-03-29T16:51:22.677Z,18.60
2023-03-29T16:53:53.404Z,18.50
2023-03-29T16:56:21.055Z,18.49
2023-03-29T16:58:48.694Z,18.53
2023-03-29T17:01:18.125Z,18.58
2023-03-29T17:03:45.790Z,18.40
2023-03-29T17:06:16.242Z,18.37
2023-03-29T17:08:44.513Z,18.23
2023-03-29T17:11:16.517Z,17.92
2023-03-29T17:13:54.636Z,18.03
2023-03-29T17:16:42.711Z,18.08
2023-03-29T17:19:20.914Z,17.78
2023-03-29T17:21:51.757Z,17.77
2023-03-29T17:24:19.530Z,17.77
2023-03-29T17:26:47.472Z,17.71
2023-03-29T17:29:18.955Z,17.66
2023-03-29T17:31:51.170Z,17.51
2023-03-29T17:34:24.259Z,17.40
2023-03-29T17:36:53.498Z,17.39
2023-03-29T17:39:25.563Z,17.25
2023-03-29T17:41:56.509Z,17.10
2023-03-29T17:44:24.285Z,16.97
2023-03-29T17:46:55.469Z,16.94
2023-03-29T17:49:28.735Z,16.86
2023-03-29T17:51:57.552Z,16.77
2023-03-29T17:54:25.545Z,16.78
2023-03-29T17:57:18.847Z,16.83
2023-03-29T17:59:47.224Z,16.68
2023-03-29T18:02:20.210Z,16.68
2023-03-29T18:04:50.220Z,16.59
2023-03-29T18:07:20.122Z,16.50
2023-03-29T18:09:47.795Z,16.36
2023-03-29T18:12:15.638Z,16.21
2023-03-29T18:14:43.237Z,16.08
2023-03-29T18:17:10.936Z,16.00
2023-03-29T18:19:43.016Z,15.80
2023-03-29T18:22:12.666Z,15.83
2023-03-29T18:24:42.061Z,15.82
2023-03-29T18:27:12.848Z,15.75
2023-03-29T18:29:40.984Z,15.71
2023-03-29T18:32:25.226Z,15.68
2023-03-29T18:34:52.885Z,15.72
2023-03-29T18:37:52.680Z,15.56
2023-03-29T18:40:32.098Z,15.44
2023-03-29T18:43:44.350Z,15.40
2023-03-29T18:46:21.176Z,15.31
2023-03-29T18:53:00.133Z,15.40
2023-03-29T19:14:52.912Z,15.00
2023-03-29T19:17:38.885Z,15.01
2023-03-29T19:26:27.218Z,14.81
2023-03-29T19:29:15.103Z,14.71
2023-03-29T19:31:56.831Z,14.48
2023-03-29T19:34:33.520Z,14.37
2023-03-29T19:37:11.134Z,14.40
2023-03-29T19:39:52.235Z,14.40
2023-03-29T19:42:49.613Z,14.36
2023-03-29T19:45:23.064Z,14.25
2023-03-29T19:48:02.946Z,14.30
2023-03-29T19:50:35.713Z,14.34
2023-03-29T19:53:09.915Z,14.28
2023-03-29T19:56:05.025Z,14.42
2023-03-29T19:58:40.145Z,14.20
2023-03-29T20:01:16.832Z,14.12
2023-03-29T20:08:55.227Z,13.94
2023-03-29T20:11:27.135Z,13.96
2023-03-29T20:17:44.273Z,13.88
2023-03-29T20:21:57.816Z,13.97
2023-03-29T20:32:26.245Z,13.75
2023-03-29T20:38:30.859Z,14.04
2023-03-29T20:44:46.409Z,14.30
2023-03-29T20:49:30.697Z,14.01
2023-03-29T20:52:41.108Z,14.00
2023-03-29T21:07:19.615Z,14.06
2023-03-29T21:30:20.831Z,13.86
2023-03-29T21:32:51.258Z,13.68
2023-03-29T21:38:51.067Z,13.25
2023-03-29T21:41:22.202Z,13.50
2023-03-29T21:44:41.062Z,13.79
2023-03-29T21:48:15.082Z,13.78
2023-03-29T21:51:32.954Z,13.34
2023-03-29T21:54:03.106Z,13.48
2023-03-29T21:57:23.987Z,13.65
2023-03-29T21:59:51.964Z,13.61
2023-03-29T22:02:51.764Z,13.13
2023-03-29T22:05:20.688Z,12.83
2023-03-29T22:07:50.631Z,13.32
2023-03-29T22:10:22.988Z,13.39
2023-03-29T22:12:53.347Z,13.53
2023-03-29T22:15:21.120Z,13.47
2023-03-29T22:20:52.023Z,13.45
2023-03-29T22:23:22.300Z,13.52
2023-03-29T22:27:47.345Z,13.21
2023-03-29T22:35:24.957Z,13.19
2023-03-29T22:38:17.794Z,13.11
2023-03-29T22:42:06.838Z,13.16
2023-03-29T23:12:22.222Z,12.97
2023-03-29T23:14:55.897Z,13.01
2023-03-29T23:18:13.119Z,12.71
2023-03-29T23:21:19.583Z,12.83
2023-03-29T23:23:47.039Z,12.72
2023-03-29T23:26:37.934Z,13.14
2023-03-29T23:29:05.611Z,13.08
2023-03-29T23:35:53.729Z,12.70
2023-03-29T23:39:05.782Z,12.89
2023-03-29T23:41:33.500Z,12.66
2023-03-29T23:44:01.071Z,12.66
2023-03-29T23:46:29.611Z,12.89
2023-03-29T23:48:57.171Z,13.05
2023-03-29T23:51:45.136Z,12.52
2023-03-29T23:55:12.584Z,12.70
2023-03-29T23:58:25.125Z,13.00
